METAR stanice u blizini

 

LYBE - Beograd / Surčin, Srbija
Ažurirano: 17/10/2018 20:00
Vedro
Vedro
 Pravac vetra ISI
Vetar: ISI 11 km/h
Temperatura: 16°C
Tačka rose: 5°C
Vlažnost: 48%
Pritisak: 1019 hPa
Pregled: Vedro
Vidljivost: greater than 10 km
2018/10/17 18:00 LYBE 171800Z 06006KT CAVOK 16/05 Q1019 NOSIG
LYBT - Beograd / Batajnica, Srbija
Ažurirano: 17/10/2018 20:00
Vedro
Vedro
 Pravac vetra SI
Vetar: SI 9 km/h
Temperatura: 17°C
Tačka rose: 4°C
Vlažnost: 42%
Pritisak: 1019 hPa
Pregled: Vedro
Vidljivost: greater than 10 km
2018/10/17 18:00 LYBT 171800Z 04005KT CAVOK 17/04 Q1019 NOSIG
LYVR - Vršac, Srbija
Ažurirano: 17/10/2018 20:00
Vedro
Vedro
 Pravac vetra SSI
Vetar: SSI 6 km/h
Temperatura: 14°C
Tačka rose: 3°C
Vlažnost: 48%
Pritisak: 1020 hPa
Pregled: Vedro
Vidljivost: greater than 10 km
2018/10/17 18:00 LYVR 171800Z 02003KT 240V050 CAVOK 14/03 Q1020 NOSIG
 
LYKV - Lađevci, Srbija
Ažurirano: 17/10/2018 20:00
Vedro
Vedro
 Pravac vetra varies
Vetar: varies 2 km/h
Temperatura: 11°C
Tačka rose: 7°C
Vlažnost: 77%
Pritisak: 1019 hPa
Pregled: Vedro
Vidljivost: greater than 10 km
2018/10/17 18:00 LYKV 171800Z VRB01KT CAVOK 11/07 Q1019 NOSIG
LYNI - Niš, Srbija
Ažurirano: 17/10/2018 20:00
Vedro
Vedro
 Pravac vetra ZJZ
Vetar: ZJZ 2 km/h
Temperatura: 17°C
Tačka rose: 5°C
Vlažnost: 45%
Pritisak: 1018 hPa
Pregled: Vedro
Vidljivost: greater than 10 km
2018/10/17 18:00 LYNI 171800Z 25001KT CAVOK 17/05 Q1018 NOSIG
BKPR - Priština, Srbija
Ažurirano: 17/10/2018 20:30
Vedro
Vedro
 Pravac vetra SSZ
Vetar: SSZ 11 km/h
Temperatura: 16°C
Tačka rose: 2°C
Vlažnost: 39%
Pritisak: 1019 hPa
Pregled: Vedro
Vidljivost: greater than 10 km
2018/10/17 18:30 BKPR 171830Z 34006KT CAVOK 16/02 Q1019 NOSIG
 
LHPP - Pecs / Pogany, Hungary
Ažurirano: 17/10/2018 18:45
NOT Current
Vedro
Vedro
 Pravac vetra ISI
Vetar: ISI 6 km/h
Temperatura: 18°C
Tačka rose: 4°C
Vlažnost: 40%
Pritisak: 1020 hPa
Pregled: Vedro
Vidljivost: greater than 10 km
2018/10/17 16:45 LHPP 171645Z 06003KT CAVOK 18/04 Q1020
LHUD - Szeged, Hungary
Ažurirano: 17/10/2018 19:45
Vedro
Vedro
 Pravac vetra S
Vetar: S 6 km/h
Temperatura: 14°C
Tačka rose: 4°C
Vlažnost: 51%
Pritisak: 1020 hPa
Pregled: Vedro
Vidljivost: greater than 10 km
2018/10/17 17:45 LHUD 171745Z 01003KT CAVOK 14/04 Q1020
LRTR - Timisoara, Romania
Ažurirano: 17/10/2018 20:00
Vedro
Vedro
 Pravac vetra ISI
Vetar: ISI 6 km/h
Temperatura: 14°C
Tačka rose: 2°C
Vlažnost: 44%
Pritisak: 1019 hPa
Pregled: Vedro
Vidljivost: greater than 10 km
2018/10/17 18:00 LRTR 171800Z 06003KT CAVOK 14/02 Q1019 NOSIG
 
LRCV - Craiova, Romania
Ažurirano: 17/10/2018 20:00
Vedro
Vedro
 Pravac vetra ISI
Vetar: ISI 4 km/h
Temperatura: 14°C
Tačka rose: 8°C
Vlažnost: 67%
Pritisak: 1020 hPa
Pregled: Vedro
Vidljivost: greater than 10 km
2018/10/17 18:00 LRCV 171800Z 07002KT CAVOK 14/08 Q1020
LBSF - Sofia, Bulgaria
Ažurirano: 17/10/2018 20:00
Vedro
Vedro
 Pravac vetra IJI
Vetar: IJI 13 km/h
Temperatura: 17°C
Tačka rose: 5°C
Vlažnost: 45%
Pritisak: 1020 hPa
Pregled: Vedro
Vidljivost: greater than 10 km
2018/10/17 18:00 LBSF 171800Z 12007KT CAVOK 17/05 Q1020 NOSIG
LWSK - Skoplje, Makedonija
Ažurirano: 17/10/2018 20:00
Vedro
Vedro
 Pravac vetra IJI
Vetar: IJI 4 km/h
Temperatura: 13°C
Tačka rose: 7°C
Vlažnost: 67%
Pritisak: 1017 hPa
Pregled: Vedro
Vidljivost: greater than 10 km
2018/10/17 18:00 LWSK 171800Z 11002KT CAVOK 13/07 Q1017 NOSIG
 
LYPG - Podgorica, Crna Gora
Ažurirano: 17/10/2018 20:00
Vedro
Vedro
 Pravac vetra varies
Vetar: varies 2 km/h
Temperatura: 17°C
Tačka rose: 11°C
Vlažnost: 68%
Pritisak: 1016 hPa
Pregled: Vedro
Vidljivost: greater than 10 km
2018/10/17 18:00 LYPG 171800Z VRB01KT CAVOK 17/11 Q1016 NOSIG
LQSA - Sarajevo, Bosna i Hercegovina
Ažurirano: 17/10/2018 20:00
Vedro
Vedro
 Pravac vetra varies
Vetar: varies 4 km/h
Temperatura: 12°C
Tačka rose: 9°C
Vlažnost: 82%
Pritisak: 1019 hPa
Pregled: Vedro
Vidljivost: greater than 10 km
2018/10/17 18:00 LQSA 171800Z VRB02KT CAVOK 12/09 Q1019 NOSIG
LDOS - Osijek, Hrvatksa
Ažurirano: 17/10/2018 20:00
Vedro
Vedro
 Pravac vetra ISI
Vetar: ISI 15 km/h
Temperatura: 13°C
Tačka rose: 3°C
Vlažnost: 51%
Pritisak: 1018 hPa
Pregled: Vedro
Vidljivost: greater than 10 km
2018/10/17 18:00 LDOS 171800Z 06008KT CAVOK 13/03 Q1018